createdAt,value
2024-05-09T00:10:07.148Z,10.08
2024-05-09T00:16:35.419Z,9.99
2024-05-09T00:23:05.481Z,9.92
2024-05-09T00:26:07.377Z,9.94
2024-05-09T00:29:12.416Z,9.91
2024-05-09T00:32:17.130Z,9.74
2024-05-09T00:45:25.988Z,9.64
2024-05-09T00:48:30.752Z,9.63
2024-05-09T00:54:54.854Z,9.68
2024-05-09T01:01:20.922Z,9.51
2024-05-09T01:04:25.939Z,9.70
2024-05-09T01:10:49.117Z,9.51
2024-05-09T01:17:15.545Z,9.58
2024-05-09T01:23:38.226Z,9.47
2024-05-09T01:26:40.386Z,9.36
2024-05-09T01:29:44.236Z,9.29
2024-05-09T01:32:46.200Z,9.50
2024-05-09T01:39:10.906Z,9.72
2024-05-09T01:42:12.759Z,9.96
2024-05-09T01:45:15.045Z,10.03
2024-05-09T01:48:18.469Z,10.08
2024-05-09T01:51:21.565Z,10.12
2024-05-09T01:54:27.376Z,10.19
2024-05-09T02:00:52.105Z,10.29
2024-05-09T02:03:54.061Z,10.35
2024-05-09T02:06:55.798Z,10.43
2024-05-09T02:10:00.309Z,10.41
2024-05-09T02:13:02.154Z,10.43
2024-05-09T02:16:04.527Z,10.45
2024-05-09T02:19:26.458Z,6.79
2024-05-09T02:22:28.316Z,10.48
2024-05-09T02:25:33.603Z,9.63
2024-05-09T02:28:35.519Z,10.51
2024-05-09T02:31:39.598Z,10.52
2024-05-09T02:37:50.200Z,10.15
2024-05-09T02:40:54.792Z,10.36
2024-05-09T02:43:56.728Z,10.36
2024-05-09T02:46:59.678Z,10.41
2024-05-09T02:50:02.395Z,10.43
2024-05-09T02:53:05.365Z,9.03
2024-05-09T02:56:24.845Z,10.50
2024-05-09T02:59:45.960Z,10.57
2024-05-09T03:02:47.986Z,10.58
2024-05-09T03:08:52.477Z,10.40
2024-05-09T03:11:54.524Z,10.47
2024-05-09T03:15:01.023Z,10.54
2024-05-09T03:21:20.370Z,10.61
2024-05-09T03:24:22.372Z,10.58
2024-05-09T03:27:24.084Z,10.69
2024-05-09T03:30:39.904Z,10.70
2024-05-09T03:33:45.032Z,10.75
2024-05-09T03:36:51.651Z,10.71
2024-05-09T03:40:02.907Z,10.01
2024-05-09T03:43:07.195Z,7.61
2024-05-09T03:46:12.585Z,10.86
2024-05-09T03:49:15.027Z,10.67
2024-05-09T03:52:17.789Z,10.55
2024-05-09T03:55:19.988Z,10.33
2024-05-09T03:58:25.790Z,10.87
2024-05-09T04:01:30.474Z,10.99
2024-05-09T04:04:35.212Z,11.02
2024-05-09T04:07:37.979Z,10.88
2024-05-09T04:10:40.982Z,11.11
2024-05-09T04:13:43.095Z,10.14
2024-05-09T04:16:47.650Z,11.10
2024-05-09T04:19:49.542Z,11.02
2024-05-09T04:22:51.535Z,11.11
2024-05-09T04:25:53.628Z,11.19
2024-05-09T04:28:55.582Z,10.31
2024-05-09T04:35:15.548Z,11.12
2024-05-09T04:38:17.271Z,11.27
2024-05-09T04:41:19.980Z,10.49
2024-05-09T04:44:21.894Z,10.17
2024-05-09T04:47:27.011Z,11.47
2024-05-09T04:50:35.652Z,11.51
2024-05-09T04:53:40.404Z,11.56
2024-05-09T04:56:42.161Z,11.66
2024-05-09T04:59:49.452Z,9.85
2024-05-09T05:06:19.367Z,11.91
2024-05-09T05:09:21.332Z,12.07
2024-05-09T05:12:26.972Z,12.21
2024-05-09T05:15:29.298Z,12.21
2024-05-09T05:18:31.562Z,12.07
2024-05-09T05:21:35.893Z,12.10
2024-05-09T05:24:38.523Z,12.14
2024-05-09T05:27:41.113Z,11.22
2024-05-09T05:34:14.874Z,12.20
2024-05-09T05:37:19.442Z,11.91
2024-05-09T05:40:35.778Z,12.14
2024-05-09T05:43:40.434Z,12.22
2024-05-09T05:46:42.242Z,12.10
2024-05-09T05:49:44.241Z,12.29
2024-05-09T05:53:04.875Z,10.35
2024-05-09T05:56:10.172Z,9.64
2024-05-09T05:59:15.325Z,12.06
2024-05-09T06:02:17.756Z,12.01
2024-05-09T06:05:23.425Z,11.95
2024-05-09T06:11:43.791Z,8.83
2024-05-09T06:14:48.339Z,12.00
2024-05-09T06:17:50.386Z,12.05
2024-05-09T06:24:09.491Z,12.13
2024-05-09T06:27:11.367Z,12.18
2024-05-09T06:30:25.774Z,12.23
2024-05-09T06:33:33.201Z,12.33
2024-05-09T06:36:42.124Z,12.35
2024-05-09T06:42:52.571Z,10.49
2024-05-09T06:45:56.995Z,12.38
2024-05-09T06:52:23.594Z,12.07
2024-05-09T06:55:25.454Z,12.52
2024-05-09T06:58:27.285Z,12.57
2024-05-09T07:01:32.164Z,12.61
2024-05-09T07:04:35.342Z,12.54
2024-05-09T07:07:40.266Z,12.48
2024-05-09T07:10:42.989Z,12.50
2024-05-09T07:13:45.108Z,12.59
2024-05-09T07:20:03.091Z,12.73
2024-05-09T07:29:44.519Z,11.77
2024-05-09T07:32:49.420Z,11.47
2024-05-09T07:35:56.522Z,9.69
2024-05-09T07:38:58.400Z,12.36
2024-05-09T07:42:00.884Z,13.13
2024-05-09T07:45:21.247Z,11.35
2024-05-09T07:54:56.830Z,13.46
2024-05-09T07:57:59.997Z,13.08
2024-05-09T08:07:52.087Z,13.64
2024-05-09T08:10:54.157Z,13.71
2024-05-09T08:16:58.573Z,13.72
2024-05-09T08:20:01.012Z,13.85
2024-05-09T08:23:07.279Z,13.98
2024-05-09T08:26:09.141Z,12.61
2024-05-09T08:29:10.762Z,14.01
2024-05-09T08:32:15.798Z,11.81
2024-05-09T08:35:17.626Z,13.98
2024-05-09T08:38:26.723Z,14.04
2024-05-09T08:41:31.280Z,13.85
2024-05-09T08:47:40.602Z,13.70
2024-05-09T08:50:45.401Z,13.65
2024-05-09T08:53:51.842Z,12.75
2024-05-09T08:56:54.046Z,13.30
2024-05-09T09:03:29.456Z,13.62
2024-05-09T09:06:34.996Z,11.33
2024-05-09T09:09:48.591Z,13.73
2024-05-09T09:12:55.342Z,13.57
2024-05-09T09:19:11.273Z,13.68
2024-05-09T09:25:18.820Z,13.80
2024-05-09T09:28:23.252Z,13.85
2024-05-09T09:31:25.751Z,13.83
2024-05-09T09:34:28.073Z,12.92
2024-05-09T09:37:34.376Z,13.30
2024-05-09T09:40:49.119Z,12.66
2024-05-09T09:43:53.604Z,13.21
2024-05-09T09:46:57.011Z,12.31
2024-05-09T09:50:02.327Z,13.21
2024-05-09T09:53:07.138Z,13.32
2024-05-09T09:56:15.862Z,13.46
2024-05-09T09:59:18.147Z,12.88
2024-05-09T10:02:20.490Z,13.61
2024-05-09T10:05:24.496Z,13.64
2024-05-09T10:08:27.257Z,13.63
2024-05-09T10:11:37.028Z,13.57
2024-05-09T10:14:48.023Z,13.72
2024-05-09T10:17:50.944Z,13.74
2024-05-09T10:24:07.241Z,13.70
2024-05-09T10:27:13.074Z,13.54
2024-05-09T10:33:55.906Z,13.16
2024-05-09T10:37:17.192Z,12.95
2024-05-09T10:40:25.880Z,13.01
2024-05-09T10:46:53.835Z,13.04
2024-05-09T10:49:56.397Z,12.85
2024-05-09T10:52:58.381Z,13.28
2024-05-09T10:59:15.258Z,13.38
2024-05-09T11:02:19.875Z,13.63
2024-05-09T11:05:23.362Z,13.61
2024-05-09T11:08:25.970Z,13.68
2024-05-09T11:11:29.081Z,13.77
2024-05-09T11:14:31.050Z,13.92
2024-05-09T11:17:40.259Z,12.84
2024-05-09T11:20:42.348Z,14.06
2024-05-09T11:23:44.569Z,14.03
2024-05-09T11:26:46.577Z,14.05
2024-05-09T11:29:48.383Z,14.04
2024-05-09T11:32:53.189Z,14.07
2024-05-09T11:35:55.286Z,14.07
2024-05-09T11:38:57.340Z,14.07
2024-05-09T11:42:02.339Z,13.94
2024-05-09T11:45:04.858Z,13.95
2024-05-09T11:48:11.553Z,14.09
2024-05-09T11:51:13.466Z,14.08
2024-05-09T11:54:15.629Z,14.07
2024-05-09T11:57:17.977Z,13.40
2024-05-09T12:00:29.154Z,14.07
2024-05-09T12:03:41.223Z,12.36
2024-05-09T12:06:43.559Z,14.02
2024-05-09T12:16:13.266Z,14.24
2024-05-09T12:19:18.028Z,14.21
2024-05-09T12:25:50.643Z,13.66
2024-05-09T12:29:04.763Z,14.11
2024-05-09T12:32:07.846Z,13.63
2024-05-09T12:35:12.474Z,14.28
2024-05-09T12:38:15.599Z,14.35
2024-05-09T12:41:17.653Z,14.29
2024-05-09T12:44:24.754Z,14.33
2024-05-09T12:47:49.982Z,12.92
2024-05-09T12:50:54.565Z,14.16
2024-05-09T12:53:56.488Z,14.17
2024-05-09T12:56:58.333Z,14.18
2024-05-09T13:03:32.468Z,14.07
2024-05-09T13:06:37.815Z,13.97
2024-05-09T13:12:51.666Z,14.09
2024-05-09T13:15:53.700Z,14.04
2024-05-09T13:18:55.865Z,14.00
2024-05-09T13:22:00.529Z,14.01
2024-05-09T13:25:16.875Z,14.07
2024-05-09T13:28:19.170Z,14.09
2024-05-09T13:31:22.337Z,14.04
2024-05-09T13:34:24.226Z,14.30
2024-05-09T13:37:28.903Z,14.36
2024-05-09T13:40:34.570Z,14.46
2024-05-09T13:43:38.166Z,14.52
2024-05-09T13:49:48.605Z,14.74
2024-05-09T13:56:07.922Z,14.93
2024-05-09T13:59:10.072Z,14.81
2024-05-09T14:02:12.122Z,14.93
2024-05-09T14:05:14.361Z,14.89
2024-05-09T14:08:20.564Z,14.95
2024-05-09T14:11:31.982Z,13.38
2024-05-09T14:14:41.819Z,14.87
2024-05-09T14:17:43.785Z,14.93
2024-05-09T14:20:45.637Z,15.02
2024-05-09T14:26:58.877Z,15.06
2024-05-09T14:33:09.526Z,15.15
2024-05-09T14:36:11.925Z,15.04
2024-05-09T14:42:33.449Z,15.23
2024-05-09T14:45:35.553Z,15.31
2024-05-09T14:48:51.884Z,15.42
2024-05-09T14:51:56.542Z,15.53
2024-05-09T14:55:00.637Z,15.68
2024-05-09T14:58:03.310Z,15.85
2024-05-09T15:01:10.995Z,15.86
2024-05-09T15:04:13.549Z,16.01
2024-05-09T15:07:33.012Z,15.99
2024-05-09T15:13:50.090Z,16.44
2024-05-09T15:16:53.503Z,15.61
2024-05-09T15:19:56.061Z,16.96
2024-05-09T15:22:58.408Z,17.66
2024-05-09T15:26:00.346Z,18.21
2024-05-09T15:29:04.876Z,18.28
2024-05-09T15:32:06.970Z,17.64
2024-05-09T15:35:08.828Z,17.37
2024-05-09T15:38:10.844Z,17.46
2024-05-09T15:41:13.229Z,17.86
2024-05-09T15:44:17.744Z,18.05
2024-05-09T15:47:21.011Z,17.63
2024-05-09T15:50:37.019Z,17.51
2024-05-09T15:53:42.241Z,17.80
2024-05-09T15:56:44.047Z,17.80
2024-05-09T16:03:14.216Z,17.30
2024-05-09T16:06:16.937Z,17.66
2024-05-09T16:09:18.935Z,18.55
2024-05-09T16:12:20.764Z,19.38
2024-05-09T16:15:25.298Z,19.24
2024-05-09T16:18:27.292Z,18.62
2024-05-09T16:21:29.177Z,18.44
2024-05-09T16:24:31.253Z,17.85
2024-05-09T16:27:33.171Z,18.53
2024-05-09T16:30:38.039Z,19.16
2024-05-09T16:33:40.249Z,18.90
2024-05-09T16:36:42.323Z,18.89
2024-05-09T16:39:44.223Z,19.18
2024-05-09T16:42:46.198Z,19.56
2024-05-09T16:45:50.930Z,19.67
2024-05-09T16:48:52.982Z,19.11
2024-05-09T16:51:54.948Z,19.13
2024-05-09T16:54:57.075Z,19.18
2024-05-09T16:57:59.394Z,19.24
2024-05-09T17:01:04.252Z,19.09
2024-05-09T17:04:06.387Z,19.50
2024-05-09T17:07:08.507Z,19.61
2024-05-09T17:10:19.100Z,19.52
2024-05-09T17:13:24.730Z,19.54
2024-05-09T17:16:29.639Z,19.13
2024-05-09T17:19:31.578Z,18.83
2024-05-09T17:22:33.571Z,19.55
2024-05-09T17:25:35.444Z,18.99
2024-05-09T17:28:37.500Z,19.04
2024-05-09T17:31:42.092Z,18.55
2024-05-09T17:34:43.976Z,18.16
2024-05-09T17:37:45.849Z,17.70
2024-05-09T17:40:47.911Z,16.63
2024-05-09T17:47:12.396Z,17.19
2024-05-09T17:53:25.064Z,16.28
2024-05-09T18:02:57.511Z,17.14
2024-05-09T18:05:59.611Z,17.28
2024-05-09T18:09:01.455Z,17.11
2024-05-09T18:12:03.734Z,17.10
2024-05-09T18:15:06.356Z,17.07
2024-05-09T18:18:28.427Z,16.87
2024-05-09T18:21:33.122Z,16.97
2024-05-09T18:24:35.111Z,16.67
2024-05-09T18:27:37.213Z,16.74
2024-05-09T18:30:40.579Z,16.75
2024-05-09T18:33:42.767Z,16.72
2024-05-09T18:36:47.542Z,16.13
2024-05-09T18:43:38.424Z,13.33
2024-05-09T18:46:46.545Z,16.20
2024-05-09T18:49:48.516Z,16.17
2024-05-09T18:52:53.033Z,16.13
2024-05-09T18:55:54.899Z,16.06
2024-05-09T18:58:56.667Z,15.82
2024-05-09T19:01:58.457Z,15.75
2024-05-09T19:05:00.654Z,15.63
2024-05-09T19:08:06.151Z,15.50
2024-05-09T19:11:08.137Z,15.49
2024-05-09T19:14:10.365Z,15.36
2024-05-09T19:17:12.215Z,15.27
2024-05-09T19:20:24.829Z,15.21
2024-05-09T19:23:38.046Z,15.18
2024-05-09T19:26:40.424Z,15.15
2024-05-09T19:29:42.267Z,15.19
2024-05-09T19:32:44.217Z,15.15
2024-05-09T19:35:46.130Z,14.99
2024-05-09T19:38:50.675Z,14.82
2024-05-09T19:41:52.542Z,14.53
2024-05-09T19:44:54.357Z,14.64
2024-05-09T19:47:56.734Z,14.52
2024-05-09T19:51:05.131Z,14.53
2024-05-09T19:54:09.584Z,14.50
2024-05-09T19:57:11.462Z,14.36
2024-05-09T20:00:21.472Z,14.23
2024-05-09T20:03:24.348Z,14.02
2024-05-09T20:09:44.136Z,14.10
2024-05-09T20:16:10.257Z,12.05
2024-05-09T20:19:12.516Z,11.19
2024-05-09T20:22:14.948Z,13.77
2024-05-09T20:25:22.880Z,13.66
2024-05-09T20:28:42.828Z,13.42
2024-05-09T20:34:54.439Z,13.32
2024-05-09T20:37:56.279Z,13.32
2024-05-09T20:41:00.552Z,13.34
2024-05-09T20:44:02.472Z,12.97
2024-05-09T20:47:07.103Z,13.28
2024-05-09T20:53:17.568Z,13.14
2024-05-09T20:56:41.633Z,13.11
2024-05-09T21:03:04.378Z,12.48
2024-05-09T21:06:06.360Z,12.77
2024-05-09T21:09:09.285Z,9.78
2024-05-09T21:15:29.121Z,10.86
2024-05-09T21:18:31.502Z,12.43
2024-05-09T21:21:39.190Z,12.44
2024-05-09T21:24:44.316Z,12.33
2024-05-09T21:27:46.764Z,9.99
2024-05-09T21:30:51.359Z,12.11
2024-05-09T21:33:54.111Z,12.07
2024-05-09T21:39:59.176Z,11.94
2024-05-09T21:43:01.585Z,11.84
2024-05-09T21:46:06.752Z,11.69
2024-05-09T21:52:22.185Z,11.69
2024-05-09T21:55:31.984Z,11.65
2024-05-09T21:58:48.455Z,11.22
2024-05-09T22:01:52.949Z,11.72
2024-05-09T22:05:01.296Z,11.65
2024-05-09T22:08:03.484Z,11.53
2024-05-09T22:11:06.391Z,11.33
2024-05-09T22:14:10.072Z,11.42
2024-05-09T22:17:16.154Z,11.37
2024-05-09T22:20:29.344Z,11.31
2024-05-09T22:23:38.638Z,11.29
2024-05-09T22:26:40.735Z,11.25
2024-05-09T22:29:42.637Z,11.22
2024-05-09T22:32:46.954Z,11.14
2024-05-09T22:35:48.949Z,10.62
2024-05-09T22:38:51.702Z,11.08
2024-05-09T22:41:53.529Z,11.03
2024-05-09T22:44:55.371Z,11.02
2024-05-09T22:48:00.222Z,11.02
2024-05-09T22:51:02.772Z,9.18
2024-05-09T22:54:05.069Z,9.60
2024-05-09T22:57:15.272Z,10.63
2024-05-09T23:00:21.676Z,10.61
2024-05-09T23:06:57.191Z,10.52
2024-05-09T23:09:59.092Z,10.70
2024-05-09T23:13:01.062Z,10.68
2024-05-09T23:16:03.451Z,10.58
2024-05-09T23:19:08.421Z,10.53
2024-05-09T23:25:27.732Z,10.06
2024-05-09T23:28:29.756Z,10.36
2024-05-09T23:31:31.808Z,10.33
2024-05-09T23:34:36.857Z,10.32
2024-05-09T23:37:39.168Z,10.27
2024-05-09T23:40:42.337Z,9.78
2024-05-09T23:47:03.069Z,9.79
2024-05-09T23:50:16.244Z,10.08
2024-05-09T23:53:22.209Z,9.96
2024-05-09T23:56:24.297Z,9.86
2024-05-09T23:59:34.831Z,9.38
